Mr Chip — WDC3048 — position and weather

sailwx.info

Track history (hours):
 
Tides and Currents Weather Stations Pressure Air Temp Water Temp Dewpoint Dewpoint Depression Visibility Wind Speed Wind Dir Waves Ship Positions

Mr Chip

Owner: CENTRAL BOAT RENTALS, BERWICK, LA. More information available from US FCC via Universal Licensing System and Coast Guard Vessel Documentation Center.

Last reported at 2018-Apr-19 16:42 UTC. Time now 2018-Apr-20 12:47 UTC.
Position N 29°32' W 090°52'.

Length 14 m; draft 2.3 m.

Type: Tug. MMSI: 367001990.

Date/timePositionNaut miles runAvg speedWind from/ knotsBaromVisibWave heightAir tempDewpointWater temp
2018-Apr-19 16:42N 29°32' W 090°52'1 5.7
2018-Apr-19 16:30N 29°32' W 090°51'3 5.6
2018-Apr-19 16:00N 29°32' W 090°48'2 4.6
2018-Apr-19 15:30N 29°33' W 090°45'2 4.2
2018-Apr-19 15:00N 29°34' W 090°43'1 1.7
2018-Apr-19 14:30N 29°33' W 090°42'3 5.2
2018-Apr-19 14:00N 29°31' W 090°43'3 5.3
2018-Apr-19 13:30N 29°28' W 090°43'3 5.4
2018-Apr-19 12:58N 29°25' W 090°43'  
2018-Apr-14 08:02N 29°21' W 090°44'1 4.5
2018-Apr-14 07:45N 29°22' W 090°44'1 4.5
2018-Apr-14 07:30N 29°23' W 090°44'3 5.0
2018-Apr-14 07:00N 29°26' W 090°43'3 5.1
2018-Apr-14 06:30N 29°28' W 090°43'3 5.2
2018-Apr-14 06:01N 29°31' W 090°43'3 5.1
2018-Apr-14 05:30N 29°33' W 090°43'2 3.7
2018-Apr-14 05:01N 29°34' W 090°45'3 5.1
2018-Apr-14 04:30N 29°32' W 090°47'3 5.8
2018-Apr-14 03:59N 29°32' W 090°50'6 0.1
2018-Apr-12 02:38N 29°34' W 090°57'1 5.5
2018-Apr-12 02:30N 29°34' W 090°56'3 5.5
2018-Apr-12 01:56N 29°32' W 090°53'2 5.2
2018-Apr-12 01:30N 29°32' W 090°50'3 5.2
2018-Apr-12 01:00N 29°32' W 090°47'2 4.4
2018-Apr-12 00:30N 29°33' W 090°45'2 4.4
2018-Apr-12 00:00N 29°34' W 090°43'0 0.8
2018-Apr-11 23:28N 29°34' W 090°43'1 2.9
2018-Apr-11 23:00N 29°33' W 090°42'3 5.2
2018-Apr-11 22:30N 29°30' W 090°43'3 5.2
2018-Apr-11 22:00N 29°27' W 090°43'  
Track history (hours):
 
Tides and Currents Weather Stations Pressure Air Temp Water Temp Dewpoint Dewpoint Depression Visibility Wind Speed Wind Dir Waves Ship Positions

Mr Chip

Owner: CENTRAL BOAT RENTALS, BERWICK, LA. More information available from US FCC via Universal Licensing System and Coast Guard Vessel Documentation Center.

Last reported at 2018-Apr-19 16:42 UTC. Time now 2018-Apr-20 12:47 UTC.
Position N 29°32' W 090°52'.

Length 14 m; draft 2.3 m.

Type: Tug. MMSI: 367001990.

Date/timePositionNaut miles runAvg speedWind from/ knotsBaromVisibWave heightAir tempDewpointWater temp
2018-Apr-19 16:42N 29°32' W 090°52'1 5.7
2018-Apr-19 16:30N 29°32' W 090°51'3 5.6
2018-Apr-19 16:00N 29°32' W 090°48'2 4.6
2018-Apr-19 15:30N 29°33' W 090°45'2 4.2
2018-Apr-19 15:00N 29°34' W 090°43'1 1.7
2018-Apr-19 14:30N 29°33' W 090°42'3 5.2
2018-Apr-19 14:00N 29°31' W 090°43'3 5.3
2018-Apr-19 13:30N 29°28' W 090°43'3 5.4
2018-Apr-19 12:58N 29°25' W 090°43'  
2018-Apr-14 08:02N 29°21' W 090°44'1 4.5
2018-Apr-14 07:45N 29°22' W 090°44'1 4.5
2018-Apr-14 07:30N 29°23' W 090°44'3 5.0
2018-Apr-14 07:00N 29°26' W 090°43'3 5.1
2018-Apr-14 06:30N 29°28' W 090°43'3 5.2
2018-Apr-14 06:01N 29°31' W 090°43'3 5.1
2018-Apr-14 05:30N 29°33' W 090°43'2 3.7
2018-Apr-14 05:01N 29°34' W 090°45'3 5.1
2018-Apr-14 04:30N 29°32' W 090°47'3 5.8
2018-Apr-14 03:59N 29°32' W 090°50'6 0.1
2018-Apr-12 02:38N 29°34' W 090°57'1 5.5
2018-Apr-12 02:30N 29°34' W 090°56'3 5.5
2018-Apr-12 01:56N 29°32' W 090°53'2 5.2
2018-Apr-12 01:30N 29°32' W 090°50'3 5.2
2018-Apr-12 01:00N 29°32' W 090°47'2 4.4
2018-Apr-12 00:30N 29°33' W 090°45'2 4.4
2018-Apr-12 00:00N 29°34' W 090°43'0 0.8
2018-Apr-11 23:28N 29°34' W 090°43'1 2.9
2018-Apr-11 23:00N 29°33' W 090°42'3 5.2
2018-Apr-11 22:30N 29°30' W 090°43'3 5.2
2018-Apr-11 22:00N 29°27' W 090°43'  

Dump ship's entire track history